sensor_id;sensor_type;location;lat;lon;timestamp;pressure;altitude;pressure_sealevel;temperature;humidity
85157;BME280;75524;50.698;7.196;2024-03-06T00:02:20;100781.19;;;5.22;100.00
85157;BME280;75524;50.698;7.196;2024-03-06T00:04:46;100784.06;;;5.20;100.00
85157;BME280;75524;50.698;7.196;2024-03-06T00:07:13;100789.56;;;5.19;100.00
85157;BME280;75524;50.698;7.196;2024-03-06T00:09:39;100782.56;;;5.18;100.00
85157;BME280;75524;50.698;7.196;2024-03-06T00:12:06;100789.91;;;5.16;100.00
85157;BME280;75524;50.698;7.196;2024-03-06T00:14:32;100792.78;;;5.14;100.00
85157;BME280;75524;50.698;7.196;2024-03-06T00:16:58;100793.09;;;5.11;100.00
85157;BME280;75524;50.698;7.196;2024-03-06T00:19:25;100799.47;;;5.10;100.00
85157;BME280;75524;50.698;7.196;2024-03-06T00:21:51;100796.81;;;5.10;100.00
85157;BME280;75524;50.698;7.196;2024-03-06T00:24:18;100806.66;;;5.09;100.00
85157;BME280;75524;50.698;7.196;2024-03-06T00:26:45;100808.84;;;5.06;100.00
85157;BME280;75524;50.698;7.196;2024-03-06T00:29:12;100813.03;;;5.08;100.00
85157;BME280;75524;50.698;7.196;2024-03-06T00:31:43;100805.16;;;5.07;100.00
85157;BME280;75524;50.698;7.196;2024-03-06T00:34:10;100807.19;;;5.05;100.00
85157;BME280;75524;50.698;7.196;2024-03-06T00:36:37;100812.53;;;5.05;100.00
85157;BME280;75524;50.698;7.196;2024-03-06T00:39:04;100814.06;;;5.07;100.00
85157;BME280;75524;50.698;7.196;2024-03-06T00:41:31;100816.22;;;5.04;100.00
85157;BME280;75524;50.698;7.196;2024-03-06T00:43:57;100818.56;;;4.99;100.00
85157;BME280;75524;50.698;7.196;2024-03-06T00:46:24;100819.56;;;4.98;100.00
85157;BME280;75524;50.698;7.196;2024-03-06T00:48:50;100826.78;;;4.97;100.00
85157;BME280;75524;50.698;7.196;2024-03-06T00:51:17;100822.25;;;4.98;100.00
85157;BME280;75524;50.698;7.196;2024-03-06T00:53:49;100828.44;;;4.98;100.00
85157;BME280;75524;50.698;7.196;2024-03-06T00:56:16;100827.78;;;4.96;100.00
85157;BME280;75524;50.698;7.196;2024-03-06T00:58:42;100840.16;;;4.97;100.00
85157;BME280;75524;50.698;7.196;2024-03-06T01:01:08;100840.50;;;4.94;100.00
85157;BME280;75524;50.698;7.196;2024-03-06T01:03:37;100851.88;;;4.96;100.00
85157;BME280;75524;50.698;7.196;2024-03-06T01:06:04;100852.38;;;4.91;100.00
85157;BME280;75524;50.698;7.196;2024-03-06T01:08:30;100854.22;;;4.91;100.00
85157;BME280;75524;50.698;7.196;2024-03-06T01:10:58;100865.25;;;4.88;100.00
85157;BME280;75524;50.698;7.196;2024-03-06T01:13:24;100864.25;;;4.89;100.00
85157;BME280;75524;50.698;7.196;2024-03-06T01:15:51;100855.41;;;4.88;100.00
85157;BME280;75524;50.698;7.196;2024-03-06T01:18:17;100862.91;;;4.85;100.00
85157;BME280;75524;50.698;7.196;2024-03-06T01:20:44;100859.75;;;4.81;100.00
85157;BME280;75524;50.698;7.196;2024-03-06T01:23:10;100864.59;;;4.77;100.00
85157;BME280;75524;50.698;7.196;2024-03-06T01:25:37;100863.25;;;4.73;100.00
85157;BME280;75524;50.698;7.196;2024-03-06T01:28:03;100871.78;;;4.69;100.00
85157;BME280;75524;50.698;7.196;2024-03-06T01:30:30;100867.59;;;4.66;100.00
85157;BME280;75524;50.698;7.196;2024-03-06T01:32:56;100873.44;;;4.61;100.00
85157;BME280;75524;50.698;7.196;2024-03-06T01:35:24;100869.59;;;4.56;100.00
85157;BME280;75524;50.698;7.196;2024-03-06T01:37:50;100861.38;;;4.49;100.00
85157;BME280;75524;50.698;7.196;2024-03-06T01:40:17;100857.72;;;4.42;100.00
85157;BME280;75524;50.698;7.196;2024-03-06T01:42:46;100861.03;;;4.36;100.00
85157;BME280;75524;50.698;7.196;2024-03-06T01:45:13;100864.06;;;4.33;100.00
85157;BME280;75524;50.698;7.196;2024-03-06T01:47:40;100871.22;;;4.24;100.00
85157;BME280;75524;50.698;7.196;2024-03-06T01:50:07;100872.84;;;4.17;100.00
85157;BME280;75524;50.698;7.196;2024-03-06T01:52:38;100871.84;;;4.09;100.00
85157;BME280;75524;50.698;7.196;2024-03-06T01:55:07;100874.31;;;4.03;100.00
85157;BME280;75524;50.698;7.196;2024-03-06T01:57:34;100883.66;;;3.99;100.00
85157;BME280;75524;50.698;7.196;2024-03-06T02:00:02;100876.13;;;3.94;100.00
85157;BME280;75524;50.698;7.196;2024-03-06T02:02:30;100884.44;;;3.91;100.00
85157;BME280;75524;50.698;7.196;2024-03-06T02:04:56;100886.31;;;3.90;100.00
85157;BME280;75524;50.698;7.196;2024-03-06T02:07:28;100884.28;;;3.92;100.00
85157;BME280;75524;50.698;7.196;2024-03-06T02:09:55;100883.63;;;3.90;100.00
85157;BME280;75524;50.698;7.196;2024-03-06T02:12:21;100883.63;;;3.90;100.00
85157;BME280;75524;50.698;7.196;2024-03-06T02:14:48;100886.31;;;3.90;100.00
85157;BME280;75524;50.698;7.196;2024-03-06T02:17:15;100879.75;;;3.85;100.00
85157;BME280;75524;50.698;7.196;2024-03-06T02:19:43;100873.56;;;3.84;100.00
85157;BME280;75524;50.698;7.196;2024-03-06T02:22:10;100881.06;;;3.81;100.00
85157;BME280;75524;50.698;7.196;2024-03-06T02:24:38;100880.53;;;3.77;100.00
85157;BME280;75524;50.698;7.196;2024-03-06T02:27:05;100878.03;;;3.75;100.00
85157;BME280;75524;50.698;7.196;2024-03-06T02:29:34;100879.88;;;3.75;100.00
85157;BME280;75524;50.698;7.196;2024-03-06T02:32:00;100882.56;;;3.75;100.00
85157;BME280;75524;50.698;7.196;2024-03-06T02:34:30;100876.69;;;3.71;100.00
85157;BME280;75524;50.698;7.196;2024-03-06T02:36:56;100880.69;;;3.67;100.00
85157;BME280;75524;50.698;7.196;2024-03-06T02:39:23;100880.16;;;3.63;100.00
85157;BME280;75524;50.698;7.196;2024-03-06T02:41:49;100881.47;;;3.59;100.00
85157;BME280;75524;50.698;7.196;2024-03-06T02:44:16;100874.63;;;3.57;100.00
85157;BME280;75524;50.698;7.196;2024-03-06T02:46:50;100876.75;;;3.53;100.00
85157;BME280;75524;50.698;7.196;2024-03-06T02:49:17;100883.94;;;3.53;100.00
85157;BME280;75524;50.698;7.196;2024-03-06T02:51:44;100879.75;;;3.50;100.00
85157;BME280;75524;50.698;7.196;2024-03-06T02:54:11;100881.22;;;3.44;100.00
85157;BME280;75524;50.698;7.196;2024-03-06T02:56:37;100876.66;;;3.37;100.00
85157;BME280;75524;50.698;7.196;2024-03-06T02:59:04;100868.81;;;3.35;100.00
85157;BME280;75524;50.698;7.196;2024-03-06T03:01:31;100882.78;;;3.29;100.00
85157;BME280;75524;50.698;7.196;2024-03-06T03:03:58;100881.75;;;3.22;100.00
85157;BME280;75524;50.698;7.196;2024-03-06T03:06:24;100879.69;;;3.16;100.00
85157;BME280;75524;50.698;7.196;2024-03-06T03:08:51;100880.16;;;3.11;100.00
85157;BME280;75524;50.698;7.196;2024-03-06T03:11:18;100881.63;;;3.05;100.00
85157;BME280;75524;50.698;7.196;2024-03-06T03:13:44;100881.25;;;3.00;100.00
85157;BME280;75524;50.698;7.196;2024-03-06T03:16:18;100891.88;;;2.92;100.00
85157;BME280;75524;50.698;7.196;2024-03-06T03:18:45;100887.31;;;2.84;100.00
85157;BME280;75524;50.698;7.196;2024-03-06T03:21:12;100893.69;;;2.73;100.00
85157;BME280;75524;50.698;7.196;2024-03-06T03:23:39;100895.16;;;2.68;100.00
85157;BME280;75524;50.698;7.196;2024-03-06T03:26:07;100898.97;;;2.65;100.00
85157;BME280;75524;50.698;7.196;2024-03-06T03:28:34;100904.75;;;2.60;100.00
85157;BME280;75524;50.698;7.196;2024-03-06T03:31:00;100905.91;;;2.58;100.00
85157;BME280;75524;50.698;7.196;2024-03-06T03:33:27;100915.19;;;2.54;100.00
85157;BME280;75524;50.698;7.196;2024-03-06T03:35:53;100915.78;;;2.47;100.00
85157;BME280;75524;50.698;7.196;2024-03-06T03:38:19;100930.09;;;2.46;100.00
85157;BME280;75524;50.698;7.196;2024-03-06T03:40:46;100930.56;;;2.42;100.00
85157;BME280;75524;50.698;7.196;2024-03-06T03:43:12;100936.75;;;2.42;100.00
85157;BME280;75524;50.698;7.196;2024-03-06T03:45:39;100938.25;;;2.45;100.00
85157;BME280;75524;50.698;7.196;2024-03-06T03:48:05;100934.78;;;2.44;100.00
85157;BME280;75524;50.698;7.196;2024-03-06T03:50:32;100937.88;;;2.40;100.00
85157;BME280;75524;50.698;7.196;2024-03-06T03:52:59;100940.00;;;2.36;100.00
85157;BME280;75524;50.698;7.196;2024-03-06T03:55:27;100939.00;;;2.37;100.00
85157;BME280;75524;50.698;7.196;2024-03-06T03:57:54;100936.66;;;2.34;100.00
85157;BME280;75524;50.698;7.196;2024-03-06T04:00:20;100939.91;;;2.28;100.00
85157;BME280;75524;50.698;7.196;2024-03-06T04:02:49;100943.16;;;2.22;100.00
85157;BME280;75524;50.698;7.196;2024-03-06T04:05:15;100945.75;;;2.13;100.00
85157;BME280;75524;50.698;7.196;2024-03-06T04:07:42;100951.09;;;2.04;100.00
85157;BME280;75524;50.698;7.196;2024-03-06T04:10:10;100950.31;;;1.93;100.00
85157;BME280;75524;50.698;7.196;2024-03-06T04:12:37;100956.38;;;1.86;100.00
85157;BME280;75524;50.698;7.196;2024-03-06T04:15:05;100955.41;;;1.77;100.00
85157;BME280;75524;50.698;7.196;2024-03-06T04:17:31;100947.16;;;1.70;100.00
85157;BME280;75524;50.698;7.196;2024-03-06T04:19:58;100947.06;;;1.62;100.00
85157;BME280;75524;50.698;7.196;2024-03-06T04:22:24;100959.25;;;1.55;100.00
85157;BME280;75524;50.698;7.196;2024-03-06T04:24:51;100954.53;;;1.48;100.00
85157;BME280;75524;50.698;7.196;2024-03-06T04:27:17;100952.00;;;1.47;100.00
85157;BME280;75524;50.698;7.196;2024-03-06T04:29:44;100968.13;;;1.45;100.00
85157;BME280;75524;50.698;7.196;2024-03-06T04:32:10;100972.47;;;1.46;100.00
85157;BME280;75524;50.698;7.196;2024-03-06T04:34:37;100971.91;;;1.43;100.00
85157;BME280;75524;50.698;7.196;2024-03-06T04:37:03;100970.50;;;1.48;100.00
85157;BME280;75524;50.698;7.196;2024-03-06T04:39:30;100981.56;;;1.54;100.00
85157;BME280;75524;50.698;7.196;2024-03-06T04:41:56;100981.56;;;1.54;100.00
85157;BME280;75524;50.698;7.196;2024-03-06T04:44:22;100970.63;;;1.57;100.00
85157;BME280;75524;50.698;7.196;2024-03-06T04:46:52;100985.63;;;1.58;100.00
85157;BME280;75524;50.698;7.196;2024-03-06T04:49:18;100986.75;;;1.55;100.00
85157;BME280;75524;50.698;7.196;2024-03-06T04:51:45;100998.22;;;1.56;100.00
85157;BME280;75524;50.698;7.196;2024-03-06T04:54:11;100999.09;;;1.56;100.00
85157;BME280;75524;50.698;7.196;2024-03-06T04:56:37;100992.75;;;1.57;100.00
85157;BME280;75524;50.698;7.196;2024-03-06T04:59:04;101002.16;;;1.61;100.00
85157;BME280;75524;50.698;7.196;2024-03-06T05:01:30;101008.03;;;1.65;100.00
85157;BME280;75524;50.698;7.196;2024-03-06T05:03:57;101012.94;;;1.70;100.00
85157;BME280;75524;50.698;7.196;2024-03-06T05:06:40;101017.00;;;1.74;100.00
85157;BME280;75524;50.698;7.196;2024-03-06T05:09:25;101019.34;;;1.77;100.00
85157;BME280;75524;50.698;7.196;2024-03-06T05:12:08;101020.63;;;1.73;100.00
85157;BME280;75524;50.698;7.196;2024-03-06T05:14:53;101012.78;;;1.71;100.00
85157;BME280;75524;50.698;7.196;2024-03-06T05:17:37;101011.09;;;1.70;100.00
85157;BME280;75524;50.698;7.196;2024-03-06T05:20:21;101012.22;;;1.68;100.00
85157;BME280;75524;50.698;7.196;2024-03-06T05:23:05;101015.91;;;1.67;100.00
85157;BME280;75524;50.698;7.196;2024-03-06T05:25:50;101024.72;;;1.67;100.00
85157;BME280;75524;50.698;7.196;2024-03-06T05:28:33;101028.81;;;1.61;100.00
85157;BME280;75524;50.698;7.196;2024-03-06T05:31:19;101027.38;;;1.57;100.00
85157;BME280;75524;50.698;7.196;2024-03-06T05:34:03;101024.31;;;1.52;100.00
85157;BME280;75524;50.698;7.196;2024-03-06T05:36:49;101034.84;;;1.44;100.00
85157;BME280;75524;50.698;7.196;2024-03-06T05:39:33;101040.72;;;1.38;100.00
85157;BME280;75524;50.698;7.196;2024-03-06T05:42:21;101051.09;;;1.31;100.00
85157;BME280;75524;50.698;7.196;2024-03-06T05:45:05;101053.19;;;1.27;100.00
85157;BME280;75524;50.698;7.196;2024-03-06T05:47:54;101055.00;;;1.27;100.00
85157;BME280;75524;50.698;7.196;2024-03-06T05:50:38;101053.19;;;1.27;100.00
85157;BME280;75524;50.698;7.196;2024-03-06T05:53:22;101059.22;;;1.29;100.00
85157;BME280;75524;50.698;7.196;2024-03-06T05:56:07;101053.91;;;1.29;100.00
85157;BME280;75524;50.698;7.196;2024-03-06T05:58:51;101058.66;;;1.26;100.00
85157;BME280;75524;50.698;7.196;2024-03-06T06:01:18;101057.81;;;1.25;100.00
85157;BME280;75524;50.698;7.196;2024-03-06T06:03:48;101066.63;;;1.26;100.00
85157;BME280;75524;50.698;7.196;2024-03-06T06:06:15;101066.34;;;1.19;100.00
85157;BME280;75524;50.698;7.196;2024-03-06T06:08:42;101078.28;;;1.15;100.00
85157;BME280;75524;50.698;7.196;2024-03-06T06:11:10;101074.88;;;1.13;100.00
85157;BME280;75524;50.698;7.196;2024-03-06T06:13:38;101071.81;;;1.08;100.00
85157;BME280;75524;50.698;7.196;2024-03-06T06:16:06;101080.50;;;1.10;100.00
85157;BME280;75524;50.698;7.196;2024-03-06T06:18:33;101090.16;;;1.11;100.00
85157;BME280;75524;50.698;7.196;2024-03-06T06:20:59;101087.78;;;1.08;100.00
85157;BME280;75524;50.698;7.196;2024-03-06T06:23:26;101091.97;;;1.10;100.00
85157;BME280;75524;50.698;7.196;2024-03-06T06:25:52;101091.00;;;1.11;100.00
85157;BME280;75524;50.698;7.196;2024-03-06T06:28:19;101093.81;;;1.10;100.00
85157;BME280;75524;50.698;7.196;2024-03-06T06:30:45;101095.34;;;1.12;100.00
85157;BME280;75524;50.698;7.196;2024-03-06T06:33:11;101096.91;;;1.15;100.00
85157;BME280;75524;50.698;7.196;2024-03-06T06:35:39;101106.28;;;1.29;100.00
85157;BME280;75524;50.698;7.196;2024-03-06T06:38:05;101108.53;;;1.34;100.00
85157;BME280;75524;50.698;7.196;2024-03-06T06:40:32;101118.34;;;1.43;100.00
85157;BME280;75524;50.698;7.196;2024-03-06T06:42:59;101114.84;;;1.42;100.00
85157;BME280;75524;50.698;7.196;2024-03-06T06:45:25;101121.72;;;1.45;100.00
85157;BME280;75524;50.698;7.196;2024-03-06T06:47:52;101132.66;;;1.52;100.00
85157;BME280;75524;50.698;7.196;2024-03-06T06:50:19;101134.34;;;1.53;100.00
85157;BME280;75524;50.698;7.196;2024-03-06T06:52:49;101138.13;;;1.60;100.00
85157;BME280;75524;50.698;7.196;2024-03-06T06:55:16;101133.94;;;1.67;100.00
85157;BME280;75524;50.698;7.196;2024-03-06T06:57:42;101136.88;;;1.74;100.00
85157;BME280;75524;50.698;7.196;2024-03-06T07:00:09;101139.13;;;1.78;100.00
85157;BME280;75524;50.698;7.196;2024-03-06T07:02:41;101138.84;;;1.81;100.00
85157;BME280;75524;50.698;7.196;2024-03-06T07:05:09;101144.88;;;1.84;100.00
85157;BME280;75524;50.698;7.196;2024-03-06T07:07:36;101150.31;;;1.82;100.00
85157;BME280;75524;50.698;7.196;2024-03-06T07:10:04;101160.00;;;1.83;100.00
85157;BME280;75524;50.698;7.196;2024-03-06T07:12:30;101158.63;;;1.89;100.00
85157;BME280;75524;50.698;7.196;2024-03-06T07:14:57;101162.38;;;1.76;100.00
85157;BME280;75524;50.698;7.196;2024-03-06T07:17:24;101165.06;;;1.76;100.00
85157;BME280;75524;50.698;7.196;2024-03-06T07:19:50;101169.53;;;1.86;100.00
85157;BME280;75524;50.698;7.196;2024-03-06T07:22:19;101168.56;;;1.87;100.00
85157;BME280;75524;50.698;7.196;2024-03-06T07:24:45;101162.81;;;1.91;100.00
85157;BME280;75524;50.698;7.196;2024-03-06T07:27:12;101169.09;;;2.00;100.00
85157;BME280;75524;50.698;7.196;2024-03-06T07:29:38;101163.78;;;2.00;100.00
85157;BME280;75524;50.698;7.196;2024-03-06T07:32:05;101168.53;;;2.06;100.00
85157;BME280;75524;50.698;7.196;2024-03-06T07:38:21;101167.69;;;2.16;100.00
85157;BME280;75524;50.698;7.196;2024-03-06T07:40:48;101175.56;;;2.17;100.00
85157;BME280;75524;50.698;7.196;2024-03-06T07:43:14;101172.59;;;2.20;100.00
85157;BME280;75524;50.698;7.196;2024-03-06T07:45:41;101179.63;;;2.21;100.00
85157;BME280;75524;50.698;7.196;2024-03-06T07:48:07;101180.31;;;2.23;100.00
85157;BME280;75524;50.698;7.196;2024-03-06T07:50:35;101180.31;;;2.23;100.00
85157;BME280;75524;50.698;7.196;2024-03-06T07:53:02;101187.06;;;2.27;100.00
85157;BME280;75524;50.698;7.196;2024-03-06T07:55:28;101187.16;;;2.36;100.00
85157;BME280;75524;50.698;7.196;2024-03-06T07:57:55;101184.91;;;2.41;100.00
85157;BME280;75524;50.698;7.196;2024-03-06T08:00:22;101193.47;;;2.44;100.00
85157;BME280;75524;50.698;7.196;2024-03-06T08:02:49;101197.13;;;2.53;100.00
85157;BME280;75524;50.698;7.196;2024-03-06T08:05:16;101196.00;;;2.46;100.00
85157;BME280;75524;50.698;7.196;2024-03-06T08:07:43;101197.22;;;2.52;100.00
85157;BME280;75524;50.698;7.196;2024-03-06T08:10:14;101195.78;;;2.67;100.00
85157;BME280;75524;50.698;7.196;2024-03-06T08:12:41;101201.72;;;2.61;100.00
85157;BME280;75524;50.698;7.196;2024-03-06T08:15:10;101199.03;;;2.71;100.00
85157;BME280;75524;50.698;7.196;2024-03-06T08:17:39;101200.97;;;2.78;100.00
85157;BME280;75524;50.698;7.196;2024-03-06T08:20:06;101209.34;;;2.93;100.00
85157;BME280;75524;50.698;7.196;2024-03-06T08:22:41;101210.97;;;3.04;100.00
85157;BME280;75524;50.698;7.196;2024-03-06T08:25:09;101207.53;;;3.22;100.00
85157;BME280;75524;50.698;7.196;2024-03-06T08:27:36;101205.09;;;3.28;100.00
85157;BME280;75524;50.698;7.196;2024-03-06T08:30:04;101212.41;;;3.26;100.00
85157;BME280;75524;50.698;7.196;2024-03-06T08:32:31;101208.25;;;3.42;100.00
85157;BME280;75524;50.698;7.196;2024-03-06T08:34:59;101215.69;;;3.48;100.00
85157;BME280;75524;50.698;7.196;2024-03-06T08:37:26;101221.22;;;3.65;100.00
85157;BME280;75524;50.698;7.196;2024-03-06T08:39:52;101225.63;;;3.56;100.00
85157;BME280;75524;50.698;7.196;2024-03-06T08:42:18;101226.31;;;3.58;100.00
85157;BME280;75524;50.698;7.196;2024-03-06T08:44:45;101226.00;;;3.61;100.00
85157;BME280;75524;50.698;7.196;2024-03-06T08:47:12;101234.56;;;3.65;100.00
85157;BME280;75524;50.698;7.196;2024-03-06T08:49:38;101229.91;;;3.67;100.00
85157;BME280;75524;50.698;7.196;2024-03-06T08:52:05;101233.81;;;3.72;100.00
85157;BME280;75524;50.698;7.196;2024-03-06T08:54:31;101237.84;;;3.58;100.00
85157;BME280;75524;50.698;7.196;2024-03-06T08:56:58;101235.25;;;3.67;100.00
85157;BME280;75524;50.698;7.196;2024-03-06T08:59:25;101243.88;;;3.60;100.00
85157;BME280;75524;50.698;7.196;2024-03-06T09:01:53;101248.13;;;3.53;100.00
85157;BME280;75524;50.698;7.196;2024-03-06T09:04:20;101239.53;;;3.59;100.00
85157;BME280;75524;50.698;7.196;2024-03-06T09:06:46;101238.78;;;3.67;100.00
85157;BME280;75524;50.698;7.196;2024-03-06T09:09:13;101239.44;;;3.69;100.00
85157;BME280;75524;50.698;7.196;2024-03-06T09:11:41;101241.53;;;3.75;100.00
85157;BME280;75524;50.698;7.196;2024-03-06T09:14:10;101246.59;;;3.78;100.00
85157;BME280;75524;50.698;7.196;2024-03-06T09:16:37;101246.50;;;3.88;100.00
85157;BME280;75524;50.698;7.196;2024-03-06T09:19:03;101248.41;;;3.96;100.00
85157;BME280;75524;50.698;7.196;2024-03-06T09:21:30;101249.41;;;3.95;100.00
85157;BME280;75524;50.698;7.196;2024-03-06T09:23:56;101251.78;;;3.98;100.00
85157;BME280;75524;50.698;7.196;2024-03-06T09:26:23;101253.91;;;4.12;100.00
85157;BME280;75524;50.698;7.196;2024-03-06T09:28:49;101253.69;;;4.24;100.00
85157;BME280;75524;50.698;7.196;2024-03-06T09:31:16;101254.81;;;4.39;100.00
85157;BME280;75524;50.698;7.196;2024-03-06T09:33:42;101249.69;;;4.46;100.00
85157;BME280;75524;50.698;7.196;2024-03-06T09:36:11;101253.81;;;4.58;100.00
85157;BME280;75524;50.698;7.196;2024-03-06T09:38:39;101258.88;;;4.70;100.00
85157;BME280;75524;50.698;7.196;2024-03-06T09:41:07;101254.97;;;4.82;100.00
85157;BME280;75524;50.698;7.196;2024-03-06T09:43:34;101262.53;;;4.87;100.00
85157;BME280;75524;50.698;7.196;2024-03-06T09:46:01;101257.78;;;5.07;100.00
85157;BME280;75524;50.698;7.196;2024-03-06T09:48:30;101268.19;;;5.10;100.00
85157;BME280;75524;50.698;7.196;2024-03-06T09:51:00;101266.59;;;5.25;100.00
85157;BME280;75524;50.698;7.196;2024-03-06T09:53:27;101270.81;;;5.36;100.00
85157;BME280;75524;50.698;7.196;2024-03-06T09:55:56;101269.31;;;5.42;100.00
85157;BME280;75524;50.698;7.196;2024-03-06T09:58:23;101267.06;;;5.55;100.00
85157;BME280;75524;50.698;7.196;2024-03-06T10:00:50;101267.59;;;5.75;100.00
85157;BME280;75524;50.698;7.196;2024-03-06T10:03:17;101276.38;;;5.94;100.00
85157;BME280;75524;50.698;7.196;2024-03-06T10:05:44;101273.41;;;6.14;100.00
85157;BME280;75524;50.698;7.196;2024-03-06T10:08:11;101279.44;;;6.16;100.00
85157;BME280;75524;50.698;7.196;2024-03-06T10:10:38;101275.09;;;6.15;100.00
85157;BME280;75524;50.698;7.196;2024-03-06T10:13:04;101280.13;;;6.26;100.00
85157;BME280;75524;50.698;7.196;2024-03-06T10:15:30;101279.47;;;6.32;100.00
85157;BME280;75524;50.698;7.196;2024-03-06T10:18:14;101284.16;;;6.47;100.00
85157;BME280;75524;50.698;7.196;2024-03-06T10:20:41;101274.44;;;6.62;100.00
85157;BME280;75524;50.698;7.196;2024-03-06T10:23:10;101283.66;;;6.76;100.00
85157;BME280;75524;50.698;7.196;2024-03-06T10:25:36;101287.03;;;6.78;100.00
85157;BME280;75524;50.698;7.196;2024-03-06T10:28:09;101281.78;;;6.93;100.00
85157;BME280;75524;50.698;7.196;2024-03-06T10:30:40;101286.97;;;7.03;100.00
85157;BME280;75524;50.698;7.196;2024-03-06T10:33:14;101281.03;;;7.24;100.00
85157;BME280;75524;50.698;7.196;2024-03-06T10:35:43;101288.06;;;7.33;100.00
85157;BME280;75524;50.698;7.196;2024-03-06T10:38:11;101289.88;;;7.41;100.00
85157;BME280;75524;50.698;7.196;2024-03-06T10:40:42;101285.28;;;7.58;100.00
85157;BME280;75524;50.698;7.196;2024-03-06T10:43:09;101286.34;;;7.80;100.00
85157;BME280;75524;50.698;7.196;2024-03-06T10:48:16;101287.00;;;7.82;100.00
85157;BME280;75524;50.698;7.196;2024-03-06T10:50:45;101285.47;;;7.88;100.00
85157;BME280;75524;50.698;7.196;2024-03-06T10:53:16;101288.38;;;8.10;100.00
85157;BME280;75524;50.698;7.196;2024-03-06T10:55:50;101288.31;;;8.41;100.00
85157;BME280;75524;50.698;7.196;2024-03-06T10:58:18;101289.00;;;8.66;100.00
85157;BME280;75524;50.698;7.196;2024-03-06T11:00:46;101286.69;;;8.78;100.00
85157;BME280;75524;50.698;7.196;2024-03-06T11:03:16;101286.88;;;8.92;100.00
85157;BME280;75524;50.698;7.196;2024-03-06T11:05:44;101287.81;;;9.14;100.00
85157;BME280;75524;50.698;7.196;2024-03-06T11:08:14;101297.13;;;9.26;100.00
85157;BME280;75524;50.698;7.196;2024-03-06T11:10:42;101300.00;;;9.39;100.00
85157;BME280;75524;50.698;7.196;2024-03-06T11:13:24;101297.03;;;9.49;100.00
85157;BME280;75524;50.698;7.196;2024-03-06T11:15:53;101297.59;;;9.60;100.00
85157;BME280;75524;50.698;7.196;2024-03-06T11:23:31;101297.25;;;9.99;100.00
85157;BME280;75524;50.698;7.196;2024-03-06T11:26:02;101301.50;;;10.09;100.00
85157;BME280;75524;50.698;7.196;2024-03-06T11:31:02;101299.06;;;9.62;91.80
85157;BME280;75524;50.698;7.196;2024-03-06T11:33:36;101292.66;;;9.48;94.37
85157;BME280;75524;50.698;7.196;2024-03-06T11:38:39;101300.31;;;9.30;93.13
85157;BME280;75524;50.698;7.196;2024-03-06T11:41:07;101300.72;;;8.88;92.26
85157;BME280;75524;50.698;7.196;2024-03-06T11:43:42;101295.78;;;8.92;94.82
85157;BME280;75524;50.698;7.196;2024-03-06T11:46:09;101301.19;;;8.92;94.20
85157;BME280;75524;50.698;7.196;2024-03-06T11:48:36;101303.66;;;9.17;96.88
85157;BME280;75524;50.698;7.196;2024-03-06T11:51:03;101300.41;;;9.36;96.25
85157;BME280;75524;50.698;7.196;2024-03-06T11:53:33;101298.13;;;9.55;96.26
85157;BME280;75524;50.698;7.196;2024-03-06T11:56:00;101297.75;;;9.73;95.86
85157;BME280;75524;50.698;7.196;2024-03-06T11:58:27;101289.63;;;9.88;94.32
85157;BME280;75524;50.698;7.196;2024-03-06T12:00:54;101287.06;;;10.01;95.46
85157;BME280;75524;50.698;7.196;2024-03-06T12:03:20;101292.38;;;10.10;92.02
85157;BME280;75524;50.698;7.196;2024-03-06T12:05:50;101300.56;;;10.01;91.41
85157;BME280;75524;50.698;7.196;2024-03-06T12:08:17;101297.66;;;10.03;91.25
85157;BME280;75524;50.698;7.196;2024-03-06T12:10:45;101292.59;;;9.93;90.53
85157;BME280;75524;50.698;7.196;2024-03-06T12:13:12;101287.19;;;9.93;90.09
85157;BME280;75524;50.698;7.196;2024-03-06T12:15:38;101297.06;;;9.86;90.29
85157;BME280;75524;50.698;7.196;2024-03-06T12:18:08;101294.53;;;9.99;91.73
85157;BME280;75524;50.698;7.196;2024-03-06T12:20:34;101294.81;;;10.04;91.29
85157;BME280;75524;50.698;7.196;2024-03-06T12:23:02;101295.88;;;10.10;90.24
85157;BME280;75524;50.698;7.196;2024-03-06T12:25:28;101297.50;;;10.04;88.61
85157;BME280;75524;50.698;7.196;2024-03-06T12:28:06;101297.66;;;9.81;87.89
85157;BME280;75524;50.698;7.196;2024-03-06T12:30:44;101286.34;;;9.93;89.71
85157;BME280;75524;50.698;7.196;2024-03-06T12:33:16;101296.38;;;9.99;87.51
85157;BME280;75524;50.698;7.196;2024-03-06T12:35:42;101293.75;;;9.84;87.65
85157;BME280;75524;50.698;7.196;2024-03-06T12:38:13;101292.19;;;9.60;87.12
85157;BME280;75524;50.698;7.196;2024-03-06T12:40:41;101298.41;;;9.60;86.13
85157;BME280;75524;50.698;7.196;2024-03-06T12:43:08;101295.16;;;9.65;84.63
85157;BME280;75524;50.698;7.196;2024-03-06T12:45:36;101298.00;;;9.78;87.11
85157;BME280;75524;50.698;7.196;2024-03-06T12:48:03;101292.00;;;9.98;87.17
85157;BME280;75524;50.698;7.196;2024-03-06T12:50:32;101290.97;;;9.99;83.73
85157;BME280;75524;50.698;7.196;2024-03-06T12:52:58;101291.19;;;9.97;84.43
85157;BME280;75524;50.698;7.196;2024-03-06T12:55:24;101288.22;;;9.92;83.98
85157;BME280;75524;50.698;7.196;2024-03-06T12:57:52;101295.97;;;9.80;82.86
85157;BME280;75524;50.698;7.196;2024-03-06T13:00:19;101298.69;;;9.65;83.05
85157;BME280;75524;50.698;7.196;2024-03-06T13:02:45;101294.34;;;9.49;82.52
85157;BME280;75524;50.698;7.196;2024-03-06T13:05:12;101289.22;;;9.54;83.07
85157;BME280;75524;50.698;7.196;2024-03-06T13:07:39;101287.00;;;9.43;82.94
85157;BME280;75524;50.698;7.196;2024-03-06T13:10:08;101286.34;;;9.41;82.29
85157;BME280;75524;50.698;7.196;2024-03-06T13:12:37;101281.16;;;9.25;81.31
85157;BME280;75524;50.698;7.196;2024-03-06T13:15:04;101275.38;;;9.28;81.83